createdAt,value
2022-10-05T01:58:45.417Z,10.20
2022-10-05T02:01:18.385Z,10.11
2022-10-05T02:03:57.200Z,10.07
2022-10-05T02:06:28.038Z,9.84
2022-10-05T02:09:04.947Z,9.79
2022-10-05T02:11:33.358Z,9.75
2022-10-05T02:14:07.556Z,9.76
2022-10-05T02:16:46.939Z,9.84
2022-10-05T02:19:34.350Z,9.68
2022-10-05T02:22:09.098Z,9.67
2022-10-05T02:24:44.607Z,9.64
2022-10-05T02:27:17.493Z,9.67
2022-10-05T02:29:48.303Z,9.66
2022-10-05T02:32:24.019Z,9.62
2022-10-05T02:34:50.919Z,9.43
2022-10-05T02:37:38.847Z,9.55
2022-10-05T02:40:05.406Z,9.57
2022-10-05T02:43:04.361Z,9.56
2022-10-05T02:45:33.706Z,9.38
2022-10-05T02:48:23.210Z,9.38
2022-10-05T02:50:59.152Z,9.49
2022-10-05T02:54:03.934Z,9.55
2022-10-05T02:56:42.072Z,9.44
2022-10-05T02:59:26.432Z,9.46
2022-10-05T03:02:00.573Z,9.25
2022-10-05T03:04:35.927Z,9.31
2022-10-05T03:07:07.836Z,9.30
2022-10-05T03:09:42.381Z,9.26
2022-10-05T03:12:30.932Z,9.26
2022-10-05T03:15:11.134Z,9.34
2022-10-05T03:18:07.350Z,9.43
2022-10-05T03:20:44.207Z,9.39
2022-10-05T03:23:25.190Z,9.28
2022-10-05T03:25:54.483Z,9.29
2022-10-05T03:28:31.989Z,9.40
2022-10-05T03:31:04.879Z,9.42
2022-10-05T03:33:34.395Z,9.34
2022-10-05T03:36:25.187Z,9.39
2022-10-05T03:39:10.711Z,9.29
2022-10-05T03:41:42.712Z,9.24
2022-10-05T03:44:25.278Z,9.31
2022-10-05T03:46:54.798Z,9.28
2022-10-05T03:49:46.076Z,9.37
2022-10-05T03:52:12.672Z,9.11
2022-10-05T03:54:45.859Z,9.11
2022-10-05T03:57:23.615Z,9.44
2022-10-05T04:00:04.895Z,9.23
2022-10-05T04:02:37.119Z,9.15
2022-10-05T04:05:19.147Z,9.15
2022-10-05T04:07:52.228Z,9.07
2022-10-05T04:10:43.190Z,8.92
2022-10-05T04:13:21.564Z,8.79
2022-10-05T04:16:12.449Z,8.98
2022-10-05T04:18:56.438Z,9.03
2022-10-05T04:21:31.388Z,9.00
2022-10-05T04:24:14.503Z,8.92
2022-10-05T04:26:50.728Z,8.89
2022-10-05T04:29:41.447Z,8.85
2022-10-05T04:32:10.731Z,8.77
2022-10-05T04:34:40.021Z,8.65
2022-10-05T04:37:18.239Z,8.62
2022-10-05T04:40:01.568Z,8.65
2022-10-05T04:42:40.275Z,8.72
2022-10-05T04:45:39.354Z,8.73
2022-10-05T04:48:22.550Z,8.46
2022-10-05T04:51:11.971Z,8.52
2022-10-05T04:54:05.171Z,8.48
2022-10-05T04:56:46.280Z,8.44
2022-10-05T04:59:34.587Z,8.54
2022-10-05T05:02:23.040Z,8.63
2022-10-05T05:05:01.557Z,8.56
2022-10-05T05:07:33.899Z,8.39
2022-10-05T05:10:19.652Z,8.39
2022-10-05T05:12:49.018Z,8.40
2022-10-05T05:15:18.195Z,8.27
2022-10-05T05:18:06.070Z,8.44
2022-10-05T05:20:47.891Z,8.29
2022-10-05T05:23:26.658Z,8.43
2022-10-05T05:26:19.251Z,8.44
2022-10-05T05:29:23.035Z,8.35
2022-10-05T05:31:54.014Z,8.31
2022-10-05T05:34:39.348Z,8.47
2022-10-05T05:37:32.184Z,8.37
2022-10-05T05:40:16.480Z,8.37
2022-10-05T05:43:20.621Z,8.42
2022-10-05T05:46:02.060Z,8.43
2022-10-05T05:48:41.344Z,8.49
2022-10-05T05:51:14.210Z,8.37
2022-10-05T05:53:44.509Z,8.50
2022-10-05T05:56:17.662Z,8.56
2022-10-05T05:58:54.767Z,8.67
2022-10-05T06:01:34.011Z,8.60
2022-10-05T06:04:13.231Z,8.61
2022-10-05T06:06:44.819Z,8.65
2022-10-05T06:09:24.662Z,8.75
2022-10-05T06:11:53.531Z,8.83
2022-10-05T06:14:44.689Z,9.00
2022-10-05T06:17:18.403Z,8.99
2022-10-05T06:19:47.126Z,9.10
2022-10-05T06:22:22.432Z,9.21
2022-10-05T06:25:12.953Z,9.45
2022-10-05T06:28:01.759Z,9.29
2022-10-05T06:30:58.578Z,9.10
2022-10-05T06:33:52.325Z,9.42
2022-10-05T06:36:37.575Z,9.97
2022-10-05T06:39:22.351Z,10.02
2022-10-05T06:42:04.075Z,9.97
2022-10-05T06:44:39.504Z,9.83
2022-10-05T06:47:21.910Z,9.93
2022-10-05T06:50:13.368Z,10.36
2022-10-05T06:52:57.890Z,10.64
2022-10-05T06:55:30.791Z,10.83
2022-10-05T06:58:19.187Z,11.12
2022-10-05T07:01:20.136Z,11.33
2022-10-05T07:03:58.644Z,11.40
2022-10-05T07:06:57.524Z,11.49
2022-10-05T07:09:41.232Z,11.67
2022-10-05T07:12:22.859Z,11.88
2022-10-05T07:14:56.776Z,12.15
2022-10-05T07:17:23.307Z,12.35
2022-10-05T07:20:16.377Z,12.38
2022-10-05T07:22:54.964Z,12.85
2022-10-05T07:25:30.623Z,12.97
2022-10-05T07:28:05.529Z,13.02
2022-10-05T07:30:45.814Z,13.16
2022-10-05T07:33:37.758Z,13.09
2022-10-05T07:36:31.150Z,13.10
2022-10-05T07:39:19.814Z,12.95
2022-10-05T07:41:56.979Z,13.25
2022-10-05T07:44:33.360Z,12.97
2022-10-05T07:47:15.742Z,13.17
2022-10-05T07:49:59.660Z,13.72
2022-10-05T07:52:32.385Z,13.86
2022-10-05T07:55:19.558Z,14.47
2022-10-05T07:57:57.950Z,14.50
2022-10-05T08:00:27.593Z,14.70
2022-10-05T08:03:10.162Z,15.13
2022-10-05T08:05:41.813Z,14.95
2022-10-05T08:08:13.180Z,15.54
2022-10-05T08:10:50.050Z,15.86
2022-10-05T08:13:33.572Z,15.91
2022-10-05T08:16:04.592Z,16.33
2022-10-05T08:18:56.802Z,16.36
2022-10-05T08:21:31.010Z,16.62
2022-10-05T08:24:30.751Z,16.60
2022-10-05T08:27:32.310Z,16.76
2022-10-05T08:30:01.940Z,16.80
2022-10-05T08:32:35.651Z,17.02
2022-10-05T08:35:37.988Z,17.50
2022-10-05T08:38:32.730Z,17.55
2022-10-05T08:41:33.157Z,17.57
2022-10-05T08:44:07.797Z,17.96
2022-10-05T08:47:11.767Z,18.14
2022-10-05T08:49:47.932Z,18.30
2022-10-05T08:52:43.731Z,17.91
2022-10-05T08:55:10.276Z,17.97
2022-10-05T08:57:48.683Z,18.17
2022-10-05T09:00:18.398Z,18.74
2022-10-05T09:03:23.455Z,18.68
2022-10-05T09:06:10.702Z,19.00
2022-10-05T09:08:55.618Z,19.21
2022-10-05T09:11:37.259Z,19.15
2022-10-05T09:14:56.426Z,19.53
2022-10-05T09:17:44.717Z,19.36
2022-10-05T09:20:15.157Z,19.50
2022-10-05T09:23:25.126Z,19.69
2022-10-05T09:26:00.682Z,19.82
2022-10-05T09:28:55.789Z,20.09
2022-10-05T09:31:40.997Z,20.09
2022-10-05T09:34:26.079Z,19.67
2022-10-05T09:37:29.674Z,18.55
2022-10-05T09:40:30.155Z,19.14
2022-10-05T09:43:20.867Z,19.00
2022-10-05T09:46:02.845Z,18.73
2022-10-05T09:48:41.674Z,18.71
2022-10-05T09:51:27.084Z,18.95
2022-10-05T09:54:33.697Z,19.55
2022-10-05T09:57:15.219Z,19.91
2022-10-05T10:00:03.264Z,19.83
2022-10-05T10:02:52.447Z,20.50
2022-10-05T10:05:51.342Z,20.38
2022-10-05T10:08:25.319Z,20.84
2022-10-05T10:10:56.798Z,21.20
2022-10-05T10:13:30.032Z,21.64
2022-10-05T10:16:02.516Z,21.85
2022-10-05T10:18:50.600Z,21.97
2022-10-05T10:21:23.262Z,22.36
2022-10-05T10:24:14.832Z,22.63
2022-10-05T10:27:02.866Z,22.82
2022-10-05T10:30:03.737Z,22.58
2022-10-05T10:32:42.479Z,22.77
2022-10-05T10:35:44.895Z,23.01
2022-10-05T10:38:40.091Z,23.32
2022-10-05T10:41:31.480Z,23.35
2022-10-05T10:44:22.721Z,23.43
2022-10-05T10:47:28.188Z,23.53
2022-10-05T10:50:05.084Z,23.19
2022-10-05T10:52:40.699Z,22.76
2022-10-05T10:55:35.457Z,22.52
2022-10-05T10:58:23.098Z,21.86
2022-10-05T11:01:24.475Z,21.69
2022-10-05T11:04:21.992Z,22.14
2022-10-05T11:07:26.167Z,22.37
2022-10-05T11:10:20.106Z,22.15
2022-10-05T11:12:58.663Z,22.29
2022-10-05T11:16:02.169Z,22.24
2022-10-05T11:18:47.212Z,22.38
2022-10-05T11:21:55.419Z,22.80
2022-10-05T11:24:38.731Z,22.82
2022-10-05T11:27:16.337Z,23.17
2022-10-05T11:30:04.303Z,23.21
2022-10-05T11:33:03.392Z,23.88
2022-10-05T11:35:34.246Z,24.15
2022-10-05T11:38:06.511Z,24.19
2022-10-05T11:40:47.746Z,24.03
2022-10-05T11:43:32.806Z,23.61
2022-10-05T11:46:14.996Z,23.94
2022-10-05T11:49:01.927Z,23.50
2022-10-05T11:51:44.175Z,23.24
2022-10-05T11:57:34.992Z,22.84
2022-10-05T12:00:10.979Z,23.23
2022-10-05T12:03:14.333Z,23.06
2022-10-05T12:06:05.871Z,22.75
2022-10-05T12:08:53.722Z,22.63
2022-10-05T12:11:25.935Z,22.49
2022-10-05T12:13:58.606Z,22.24
2022-10-05T12:16:34.310Z,22.60
2022-10-05T12:19:18.622Z,22.30
2022-10-05T12:21:52.240Z,22.40
2022-10-05T12:24:30.455Z,22.40
2022-10-05T12:27:12.057Z,22.28
2022-10-05T12:29:49.792Z,22.47
2022-10-05T12:32:22.819Z,22.32
2022-10-05T12:35:30.013Z,22.07
2022-10-05T12:38:15.692Z,22.13
2022-10-05T12:40:52.894Z,22.19
2022-10-05T12:43:42.669Z,22.01
2022-10-05T12:46:17.869Z,21.75
2022-10-05T12:48:59.754Z,21.85
2022-10-05T12:51:52.147Z,21.80
2022-10-05T12:54:49.573Z,21.81
2022-10-05T12:57:18.960Z,21.69
2022-10-05T13:00:02.359Z,21.66
2022-10-05T13:03:01.240Z,21.67
2022-10-05T13:05:35.887Z,21.74
2022-10-05T13:08:14.482Z,21.64
2022-10-05T13:11:14.777Z,21.50
2022-10-05T13:14:16.566Z,21.71
2022-10-05T13:16:54.726Z,21.61
2022-10-05T13:19:24.723Z,21.78
2022-10-05T13:22:14.634Z,22.51
2022-10-05T13:25:07.312Z,22.71
2022-10-05T13:28:00.048Z,22.17
2022-10-05T13:30:27.299Z,22.07
2022-10-05T13:33:05.109Z,21.74
2022-10-05T13:36:04.998Z,21.50
2022-10-05T13:38:58.582Z,21.64
2022-10-05T13:41:34.392Z,21.76
2022-10-05T13:44:28.937Z,21.73
2022-10-05T13:47:21.005Z,21.82
2022-10-05T13:50:03.534Z,22.40
2022-10-05T13:52:51.250Z,22.71
2022-10-05T13:55:33.114Z,22.97
2022-10-05T13:58:08.665Z,23.11
2022-10-05T14:00:53.143Z,23.15
2022-10-05T14:03:40.039Z,23.47
2022-10-05T14:06:14.575Z,23.28
2022-10-05T14:08:51.820Z,22.82
2022-10-05T14:11:26.604Z,22.53
2022-10-05T14:14:10.490Z,22.63
2022-10-05T14:16:57.618Z,22.32
2022-10-05T14:19:24.312Z,22.13
2022-10-05T14:22:01.576Z,22.10
2022-10-05T14:24:46.127Z,22.25
2022-10-05T14:27:27.857Z,22.09
2022-10-05T14:29:56.476Z,21.91
2022-10-05T14:32:25.163Z,21.92
2022-10-05T14:34:57.728Z,22.16
2022-10-05T14:37:31.204Z,22.29
2022-10-05T14:40:21.271Z,22.35
2022-10-05T14:42:48.370Z,22.55
2022-10-05T14:45:21.639Z,22.23
2022-10-05T14:47:52.641Z,22.53
2022-10-05T14:50:26.215Z,22.75
2022-10-05T14:53:11.145Z,22.73
2022-10-05T14:55:47.003Z,22.76
2022-10-05T14:58:33.163Z,23.04
2022-10-05T15:01:10.185Z,23.06
2022-10-05T15:04:14.648Z,23.27
2022-10-05T15:07:04.446Z,23.15
2022-10-05T15:09:55.844Z,23.14
2022-10-05T15:12:32.003Z,23.18
2022-10-05T15:15:39.805Z,23.20
2022-10-05T15:18:16.798Z,22.89
2022-10-05T15:20:46.002Z,23.09
2022-10-05T15:23:24.940Z,23.29
2022-10-05T15:26:07.831Z,23.25
2022-10-05T15:28:48.416Z,23.40
2022-10-05T15:31:46.714Z,23.31
2022-10-05T15:34:36.196Z,23.21
2022-10-05T15:37:21.135Z,23.38
2022-10-05T15:39:59.208Z,23.34
2022-10-05T15:42:38.370Z,23.31
2022-10-05T15:45:30.084Z,23.38
2022-10-05T15:48:03.060Z,23.23
2022-10-05T15:50:32.466Z,23.31
2022-10-05T15:53:14.561Z,23.17
2022-10-05T15:55:59.879Z,23.03
2022-10-05T15:59:00.033Z,23.10
2022-10-05T16:01:43.578Z,23.12
2022-10-05T16:04:51.987Z,23.10
2022-10-05T16:07:47.737Z,22.96
2022-10-05T16:10:21.612Z,22.88
2022-10-05T16:13:19.153Z,22.89
2022-10-05T16:16:08.065Z,22.62
2022-10-05T16:19:12.604Z,22.64
2022-10-05T16:22:06.754Z,22.67
2022-10-05T16:25:08.939Z,22.65
2022-10-05T16:28:21.820Z,22.45
2022-10-05T16:30:58.755Z,22.26
2022-10-05T16:33:56.386Z,22.25
2022-10-05T16:36:41.040Z,22.12
2022-10-05T16:39:25.648Z,21.97
2022-10-05T16:42:05.479Z,21.84
2022-10-05T16:45:19.965Z,21.86
2022-10-05T16:48:13.487Z,21.63
2022-10-05T16:50:43.171Z,21.77
2022-10-05T16:53:43.905Z,21.37
2022-10-05T16:56:18.018Z,21.26
2022-10-05T16:59:32.135Z,21.34
2022-10-05T17:02:23.614Z,21.19
2022-10-05T17:05:20.101Z,21.04
2022-10-05T17:07:58.760Z,21.01
2022-10-05T17:10:35.916Z,20.68
2022-10-05T17:13:16.289Z,20.74
2022-10-05T17:16:03.445Z,20.68
2022-10-05T17:18:39.239Z,20.39
2022-10-05T17:21:11.535Z,20.35
2022-10-05T17:23:55.165Z,20.26
2022-10-05T17:27:02.505Z,20.17
2022-10-05T17:29:51.412Z,19.73
2022-10-05T17:32:17.928Z,19.80
2022-10-05T17:35:00.544Z,19.89
2022-10-05T17:37:27.079Z,19.71
2022-10-05T17:39:57.811Z,19.65
2022-10-05T17:42:30.167Z,19.58
2022-10-05T17:45:12.159Z,19.58
2022-10-05T17:48:34.387Z,19.54
2022-10-05T17:51:19.467Z,19.18
2022-10-05T17:54:05.763Z,19.05
2022-10-05T17:56:55.619Z,18.90
2022-10-05T17:59:55.638Z,18.88
2022-10-05T18:02:38.515Z,18.84
2022-10-05T18:05:05.122Z,18.44
2022-10-05T18:07:33.962Z,18.31
2022-10-05T18:10:09.670Z,18.48
2022-10-05T18:12:36.200Z,18.31
2022-10-05T18:15:22.294Z,18.25
2022-10-05T18:17:58.147Z,18.19
2022-10-05T18:20:25.551Z,17.86
2022-10-05T18:23:06.128Z,17.98
2022-10-05T18:25:52.983Z,17.65
2022-10-05T18:29:13.958Z,17.77
2022-10-05T18:32:01.278Z,17.55
2022-10-05T18:34:30.582Z,17.33
2022-10-05T18:37:12.297Z,17.26
2022-10-05T18:39:58.283Z,17.23
2022-10-05T18:43:06.367Z,17.17
2022-10-05T18:45:51.471Z,17.18
2022-10-05T18:48:39.867Z,17.25
2022-10-05T18:51:41.379Z,17.38
2022-10-05T18:54:25.147Z,17.15
2022-10-05T18:56:53.202Z,16.83
2022-10-05T18:59:49.498Z,16.91
2022-10-05T19:02:25.024Z,16.96
2022-10-05T19:05:47.025Z,16.79
2022-10-05T19:08:34.326Z,16.84
2022-10-05T19:11:25.852Z,16.81
2022-10-05T19:14:24.483Z,16.41
2022-10-05T19:17:09.644Z,16.45
2022-10-05T19:19:57.742Z,16.26
2022-10-05T19:22:51.447Z,16.30
2022-10-05T19:25:20.993Z,16.56
2022-10-05T19:27:59.719Z,16.21
2022-10-05T19:30:35.276Z,16.10
2022-10-05T19:33:26.704Z,16.05
2022-10-05T19:36:11.836Z,15.75
2022-10-05T19:38:57.823Z,15.39
2022-10-05T19:41:55.306Z,15.81
2022-10-05T19:44:46.614Z,15.75
2022-10-05T19:47:31.681Z,15.41
2022-10-05T19:50:01.987Z,15.17
2022-10-05T19:52:43.405Z,14.91
2022-10-05T19:55:26.440Z,15.28
2022-10-05T19:57:55.970Z,15.26
2022-10-05T20:00:31.375Z,15.36
2022-10-05T20:03:12.155Z,15.36
2022-10-05T20:05:40.058Z,15.29
2022-10-05T20:08:07.599Z,15.31
2022-10-05T20:10:34.393Z,15.33
2022-10-05T20:13:04.051Z,15.33
2022-10-05T20:15:54.933Z,15.21
2022-10-05T20:18:55.375Z,15.26
2022-10-05T20:21:46.378Z,15.30
2022-10-05T20:24:48.961Z,15.07
2022-10-05T20:27:42.951Z,15.09
2022-10-05T20:30:11.963Z,14.99
2022-10-05T20:32:38.673Z,15.02
2022-10-05T20:35:07.008Z,14.83
2022-10-05T20:37:33.774Z,14.81
2022-10-05T20:40:00.418Z,14.70
2022-10-05T20:42:26.966Z,14.74
2022-10-05T20:44:56.907Z,14.83
2022-10-05T20:47:25.022Z,14.53
2022-10-05T20:49:53.400Z,14.25
2022-10-05T20:52:20.729Z,14.36
2022-10-05T20:54:47.326Z,14.28
2022-10-05T20:57:14.082Z,14.17
2022-10-05T20:59:40.796Z,14.12
2022-10-05T21:02:07.431Z,14.11
2022-10-05T21:04:41.643Z,14.07
2022-10-05T21:07:08.702Z,14.15
2022-10-05T21:09:38.336Z,14.22
2022-10-05T21:12:05.280Z,14.35
2022-10-05T21:14:34.377Z,14.15
2022-10-05T21:17:02.035Z,14.08
2022-10-05T21:19:29.556Z,14.25
2022-10-05T21:21:59.530Z,14.18
2022-10-05T21:24:26.346Z,14.20
2022-10-05T21:26:56.838Z,14.12
2022-10-05T21:29:23.438Z,14.12
2022-10-05T21:31:50.130Z,14.17
2022-10-05T21:34:16.856Z,13.87
2022-10-05T21:36:43.415Z,13.82
2022-10-05T21:39:10.044Z,13.81
2022-10-05T21:41:36.666Z,13.78
2022-10-05T21:44:04.143Z,13.90
2022-10-05T21:46:31.635Z,13.88
2022-10-05T21:48:58.254Z,13.70
2022-10-05T21:51:26.318Z,13.76
2022-10-05T21:53:59.451Z,13.82
2022-10-05T21:56:31.234Z,13.80
2022-10-05T21:58:59.281Z,13.70
2022-10-05T22:01:25.993Z,13.78
2022-10-05T22:03:52.653Z,13.70
2022-10-05T22:06:19.272Z,13.58
2022-10-05T22:08:46.097Z,13.60
2022-10-05T22:11:17.946Z,13.67
2022-10-05T22:13:47.814Z,13.67
2022-10-05T22:16:16.533Z,13.68
2022-10-05T22:18:43.585Z,13.59
2022-10-05T22:21:12.404Z,13.28
2022-10-05T22:23:40.810Z,13.33
2022-10-05T22:26:09.290Z,13.41
2022-10-05T22:28:37.221Z,13.52
2022-10-05T22:31:06.550Z,13.42
2022-10-05T22:33:33.329Z,13.37
2022-10-05T22:36:00.601Z,13.44
2022-10-05T22:38:28.068Z,13.36
2022-10-05T22:40:54.780Z,13.35
2022-10-05T22:43:21.414Z,13.33
2022-10-05T22:45:48.127Z,13.02
2022-10-05T22:48:15.771Z,13.01
2022-10-05T22:50:46.519Z,13.24
2022-10-05T22:53:13.947Z,13.21
2022-10-05T22:55:40.865Z,13.25
2022-10-05T22:58:07.461Z,13.25
2022-10-05T23:00:56.357Z,13.24
2022-10-05T23:03:20.738Z,13.24
2022-10-05T23:05:47.322Z,13.20
2022-10-05T23:08:13.884Z,12.96
2022-10-05T23:10:40.476Z,13.02
2022-10-05T23:13:08.764Z,13.00
2022-10-05T23:15:35.912Z,12.93
2022-10-05T23:18:02.462Z,12.84
2022-10-05T23:20:29.175Z,12.83
2022-10-05T23:22:55.730Z,12.73
2022-10-05T23:25:22.351Z,12.83
2022-10-05T23:27:49.235Z,12.84
2022-10-05T23:30:15.846Z,12.65
2022-10-05T23:32:44.323Z,12.82
2022-10-05T23:35:12.826Z,12.91
2022-10-05T23:37:44.286Z,12.91
2022-10-05T23:40:14.224Z,12.76
2022-10-05T23:42:41.584Z,12.68
2022-10-05T23:45:10.337Z,12.81
2022-10-05T23:47:37.960Z,12.75
2022-10-05T23:50:07.056Z,12.63
2022-10-05T23:52:34.665Z,12.59
2022-10-05T23:55:05.475Z,12.47
2022-10-05T23:57:32.338Z,12.55
2022-10-05T23:59:58.998Z,12.54
